createdAt,value
2022-11-30T00:01:39.838Z,4.60
2022-11-30T00:04:09.286Z,4.60
2022-11-30T00:06:49.022Z,4.61
2022-11-30T00:09:17.479Z,4.61
2022-11-30T00:11:45.778Z,4.61
2022-11-30T00:14:14.155Z,4.62
2022-11-30T00:16:42.672Z,4.57
2022-11-30T00:19:11.013Z,4.60
2022-11-30T00:21:39.389Z,4.62
2022-11-30T00:24:11.565Z,4.64
2022-11-30T00:26:39.914Z,4.65
2022-11-30T00:29:08.314Z,4.66
2022-11-30T00:31:36.677Z,4.65
2022-11-30T00:34:05.025Z,4.57
2022-11-30T00:36:33.447Z,4.59
2022-11-30T00:39:01.816Z,4.56
2022-11-30T00:41:31.517Z,4.49
2022-11-30T00:43:59.838Z,4.43
2022-11-30T00:46:28.203Z,4.39
2022-11-30T00:48:56.556Z,4.39
2022-11-30T00:51:25.017Z,4.39
2022-11-30T00:53:53.371Z,4.37
2022-11-30T00:56:22.995Z,4.31
2022-11-30T00:58:54.353Z,4.30
2022-11-30T01:01:22.803Z,4.30
2022-11-30T01:03:51.078Z,4.33
2022-11-30T01:06:19.478Z,4.34
2022-11-30T01:08:48.068Z,4.32
2022-11-30T01:11:18.992Z,4.29
2022-11-30T01:13:47.424Z,4.24
2022-11-30T01:16:58.060Z,4.24
2022-11-30T01:19:51.610Z,4.28
2022-11-30T01:22:19.961Z,4.31
2022-11-30T01:24:48.386Z,4.33
2022-11-30T01:27:17.001Z,4.36
2022-11-30T01:29:45.510Z,4.36
2022-11-30T01:32:15.198Z,4.39
2022-11-30T01:34:43.692Z,4.41
2022-11-30T01:37:12.033Z,4.44
2022-11-30T01:39:40.723Z,4.46
2022-11-30T01:42:15.861Z,4.48
2022-11-30T01:44:55.609Z,4.52
2022-11-30T01:47:31.860Z,4.51
2022-11-30T01:50:07.243Z,4.47
2022-11-30T01:52:38.985Z,4.41
2022-11-30T01:55:15.912Z,4.33
2022-11-30T01:57:48.992Z,4.35
2022-11-30T02:00:17.844Z,4.37
2022-11-30T02:02:56.668Z,4.38
2022-11-30T02:05:26.825Z,4.40
2022-11-30T02:07:56.363Z,4.36
2022-11-30T02:10:29.147Z,4.37
2022-11-30T02:13:31.762Z,4.41
2022-11-30T02:16:11.626Z,4.45
2022-11-30T02:18:54.040Z,4.48
2022-11-30T02:21:30.823Z,4.47
2022-11-30T02:24:32.290Z,4.47
2022-11-30T02:27:12.284Z,4.41
2022-11-30T02:29:44.941Z,4.38
2022-11-30T02:32:19.317Z,4.38
2022-11-30T02:34:49.606Z,4.35
2022-11-30T02:37:19.334Z,4.33
2022-11-30T02:39:47.681Z,4.30
2022-11-30T02:42:16.589Z,4.33
2022-11-30T02:44:49.458Z,4.37
2022-11-30T02:47:24.733Z,4.38
2022-11-30T02:49:59.882Z,4.42
2022-11-30T02:52:30.393Z,4.45
2022-11-30T02:55:02.171Z,4.45
2022-11-30T02:57:30.746Z,4.44
2022-11-30T03:00:03.277Z,4.39
2022-11-30T03:02:31.705Z,4.31
2022-11-30T03:05:00.142Z,4.29
2022-11-30T03:07:28.534Z,4.28
2022-11-30T03:09:57.031Z,4.26
2022-11-30T03:12:25.397Z,4.24
2022-11-30T03:14:54.135Z,4.26
2022-11-30T03:17:23.844Z,4.33
2022-11-30T03:19:52.119Z,4.36
2022-11-30T03:22:20.446Z,4.34
2022-11-30T03:24:52.398Z,4.35
2022-11-30T03:27:20.753Z,4.35
2022-11-30T03:29:49.029Z,4.35
2022-11-30T03:32:17.335Z,4.32
2022-11-30T03:34:47.143Z,4.27
2022-11-30T03:37:15.600Z,4.25
2022-11-30T03:39:44.581Z,4.29
2022-11-30T03:42:12.921Z,4.28
2022-11-30T03:44:41.251Z,4.32
2022-11-30T03:47:09.545Z,4.31
2022-11-30T03:49:37.875Z,4.32
2022-11-30T03:52:07.670Z,4.31
2022-11-30T03:54:35.989Z,4.30
2022-11-30T03:57:04.590Z,4.27
2022-11-30T03:59:32.869Z,4.25
2022-11-30T04:02:01.458Z,4.27
2022-11-30T04:04:29.770Z,4.29
2022-11-30T04:06:58.124Z,4.29
2022-11-30T04:09:27.886Z,4.28
2022-11-30T04:11:56.234Z,4.28
2022-11-30T04:14:24.535Z,4.26
2022-11-30T04:16:52.865Z,4.25
2022-11-30T04:19:21.172Z,4.24
2022-11-30T04:21:49.463Z,4.25
2022-11-30T04:24:17.830Z,4.27
2022-11-30T04:26:48.137Z,4.26
2022-11-30T04:29:16.482Z,4.27
2022-11-30T04:31:44.948Z,4.25
2022-11-30T04:34:13.601Z,4.25
2022-11-30T04:36:41.968Z,4.27
2022-11-30T04:39:10.261Z,4.27
2022-11-30T04:41:38.620Z,4.28
2022-11-30T04:44:08.545Z,4.30
2022-11-30T04:46:37.803Z,4.31
2022-11-30T04:49:06.213Z,4.36
2022-11-30T04:51:34.668Z,4.41
2022-11-30T04:54:03.118Z,4.40
2022-11-30T04:56:35.628Z,4.39
2022-11-30T04:59:04.312Z,4.42
2022-11-30T05:01:34.094Z,4.47
2022-11-30T05:04:02.616Z,4.52
2022-11-30T05:06:31.082Z,4.54
2022-11-30T05:08:59.603Z,4.58
2022-11-30T05:11:28.160Z,4.62
2022-11-30T05:13:56.564Z,4.63
2022-11-30T05:16:25.017Z,4.62
2022-11-30T05:18:54.730Z,4.63
2022-11-30T05:21:23.094Z,4.62
2022-11-30T05:23:52.343Z,4.65
2022-11-30T05:26:20.661Z,4.66
2022-11-30T05:28:49.205Z,4.67
2022-11-30T05:31:17.889Z,4.67
2022-11-30T05:33:51.468Z,4.70
2022-11-30T05:36:21.821Z,4.71
2022-11-30T05:38:50.344Z,4.71
2022-11-30T05:41:18.656Z,4.70
2022-11-30T05:43:47.009Z,4.68
2022-11-30T05:46:15.403Z,4.66
2022-11-30T05:48:43.797Z,4.67
2022-11-30T05:51:15.342Z,4.68
2022-11-30T05:53:45.972Z,4.69
2022-11-30T05:56:16.012Z,4.68
2022-11-30T05:58:45.022Z,4.70
2022-11-30T06:01:20.046Z,4.70
2022-11-30T06:03:48.624Z,4.70
2022-11-30T06:06:17.639Z,4.71
2022-11-30T06:08:48.652Z,4.70
2022-11-30T06:11:18.265Z,4.68
2022-11-30T06:13:46.637Z,4.69
2022-11-30T06:16:15.007Z,4.68
2022-11-30T06:18:43.349Z,4.70
2022-11-30T06:21:13.712Z,4.70
2022-11-30T06:23:42.058Z,4.69
2022-11-30T06:26:13.615Z,4.67
2022-11-30T06:28:46.572Z,4.66
2022-11-30T06:31:16.940Z,4.63
2022-11-30T06:33:45.286Z,4.64
2022-11-30T06:36:13.585Z,4.63
2022-11-30T06:38:41.931Z,4.65
2022-11-30T06:41:12.534Z,4.66
2022-11-30T06:43:41.497Z,4.67
2022-11-30T06:46:10.221Z,4.68
2022-11-30T06:48:38.662Z,4.68
2022-11-30T06:51:08.239Z,4.70
2022-11-30T06:53:37.279Z,4.68
2022-11-30T06:56:10.536Z,4.69
2022-11-30T06:58:41.190Z,4.69
2022-11-30T07:01:11.387Z,4.70
2022-11-30T07:03:40.321Z,4.68
2022-11-30T07:06:10.895Z,4.69
2022-11-30T07:08:40.505Z,4.73
2022-11-30T07:11:11.835Z,4.78
2022-11-30T07:13:41.595Z,4.83
2022-11-30T07:16:12.368Z,4.86
2022-11-30T07:18:40.790Z,4.88
2022-11-30T07:21:10.075Z,4.89
2022-11-30T07:23:57.117Z,4.88
2022-11-30T07:26:26.612Z,4.88
2022-11-30T07:28:58.445Z,4.83
2022-11-30T07:31:29.105Z,4.79
2022-11-30T07:33:58.985Z,4.70
2022-11-30T07:36:29.658Z,4.69
2022-11-30T07:38:57.999Z,4.67
2022-11-30T07:41:26.578Z,4.68
2022-11-30T07:43:56.357Z,4.71
2022-11-30T07:46:24.725Z,4.74
2022-11-30T07:48:53.288Z,4.76
2022-11-30T07:51:23.255Z,4.78
2022-11-30T07:53:51.895Z,4.79
2022-11-30T07:56:21.731Z,4.83
2022-11-30T07:58:51.607Z,4.83
2022-11-30T08:01:23.673Z,4.84
2022-11-30T08:03:52.937Z,4.86
2022-11-30T08:06:23.102Z,4.87
2022-11-30T08:09:01.917Z,4.87
2022-11-30T08:11:31.698Z,4.89
2022-11-30T08:14:00.263Z,4.89
2022-11-30T08:16:31.079Z,4.90
2022-11-30T08:18:59.850Z,4.88
2022-11-30T08:21:28.241Z,4.89
2022-11-30T08:23:57.792Z,4.90
2022-11-30T08:26:27.986Z,4.89
2022-11-30T08:28:57.302Z,4.90
2022-11-30T08:31:27.216Z,4.90
2022-11-30T08:33:58.649Z,4.91
2022-11-30T08:36:29.206Z,4.91
2022-11-30T08:38:58.997Z,4.90
2022-11-30T08:41:28.325Z,4.89
2022-11-30T08:43:56.857Z,4.91
2022-11-30T08:49:24.438Z,4.94
2022-11-30T08:54:46.358Z,4.89
2022-11-30T08:57:15.072Z,4.89
2022-11-30T08:59:43.450Z,4.90
2022-11-30T09:02:13.381Z,4.93
2022-11-30T09:04:43.239Z,4.95
2022-11-30T09:07:11.625Z,4.94
2022-11-30T09:09:40.376Z,4.97
2022-11-30T09:12:09.335Z,4.99
2022-11-30T09:14:37.985Z,5.03
2022-11-30T09:17:06.365Z,5.05
2022-11-30T09:19:34.822Z,5.06
2022-11-30T09:22:05.197Z,5.05
2022-11-30T09:24:33.513Z,5.04
2022-11-30T09:27:02.009Z,5.06
2022-11-30T09:29:30.647Z,5.04
2022-11-30T09:31:58.950Z,5.04
2022-11-30T09:34:27.338Z,5.06
2022-11-30T09:36:55.702Z,5.07
2022-11-30T09:39:25.441Z,5.08
2022-11-30T09:42:23.443Z,5.07
2022-11-30T09:45:00.210Z,5.09
2022-11-30T09:47:50.447Z,5.08
2022-11-30T09:50:22.637Z,5.10
2022-11-30T09:52:54.229Z,5.11
2022-11-30T09:55:30.567Z,5.10
2022-11-30T09:58:03.152Z,5.10
2022-11-30T10:00:31.989Z,5.10
2022-11-30T10:03:04.365Z,5.11
2022-11-30T10:05:45.161Z,5.11
2022-11-30T10:08:29.370Z,5.11
2022-11-30T10:11:17.355Z,5.11
2022-11-30T10:14:02.699Z,5.10
2022-11-30T10:16:43.357Z,5.13
2022-11-30T10:19:25.925Z,5.13
2022-11-30T10:22:09.078Z,5.13
2022-11-30T10:24:56.138Z,5.13
2022-11-30T10:27:40.033Z,5.15
2022-11-30T10:30:15.130Z,5.16
2022-11-30T10:32:46.014Z,5.19
2022-11-30T10:35:24.390Z,5.20
2022-11-30T10:37:54.420Z,5.22
2022-11-30T10:40:34.115Z,5.25
2022-11-30T10:43:19.930Z,5.26
2022-11-30T10:45:50.160Z,5.27
2022-11-30T10:48:25.686Z,5.26
2022-11-30T10:50:54.536Z,5.25
2022-11-30T10:53:23.172Z,5.25
2022-11-30T10:56:00.123Z,5.24
2022-11-30T10:58:34.707Z,5.23
2022-11-30T11:01:06.473Z,5.20
2022-11-30T11:03:35.249Z,5.22
2022-11-30T11:06:07.000Z,5.22
2022-11-30T11:08:35.565Z,5.23
2022-11-30T11:11:05.086Z,5.25
2022-11-30T11:13:43.015Z,5.20
2022-11-30T11:16:13.078Z,5.17
2022-11-30T11:18:53.999Z,5.17
2022-11-30T11:21:24.569Z,5.18
2022-11-30T11:23:55.705Z,5.18
2022-11-30T11:26:26.306Z,5.18
2022-11-30T11:28:59.430Z,5.14
2022-11-30T11:31:36.981Z,5.12
2022-11-30T11:34:21.023Z,5.11
2022-11-30T11:37:06.419Z,5.11
2022-11-30T11:39:34.881Z,5.10
2022-11-30T11:42:03.652Z,5.09
2022-11-30T11:44:33.744Z,5.08
2022-11-30T11:47:04.410Z,5.07
2022-11-30T11:49:35.582Z,5.01
2022-11-30T11:52:06.216Z,5.02
2022-11-30T11:54:40.429Z,5.05
2022-11-30T11:57:10.622Z,5.06
2022-11-30T11:59:47.841Z,5.09
2022-11-30T12:02:28.692Z,5.11
2022-11-30T12:05:00.233Z,5.12
2022-11-30T12:07:35.057Z,5.11
2022-11-30T12:10:51.395Z,5.10
2022-11-30T12:13:17.633Z,5.11
2022-11-30T12:16:00.214Z,5.12
2022-11-30T12:18:35.143Z,5.12
2022-11-30T12:21:11.734Z,5.13
2022-11-30T12:23:59.361Z,5.15
2022-11-30T12:26:38.302Z,5.13
2022-11-30T12:29:25.227Z,5.14
2022-11-30T12:32:21.558Z,5.15
2022-11-30T12:35:04.057Z,5.17
2022-11-30T12:37:47.540Z,5.17
2022-11-30T12:40:28.975Z,5.18
2022-11-30T12:43:05.101Z,5.21
2022-11-30T12:45:38.587Z,5.20
2022-11-30T12:48:19.806Z,5.22
2022-11-30T12:51:00.433Z,5.20
2022-11-30T12:53:34.613Z,5.18
2022-11-30T12:56:15.120Z,5.19
2022-11-30T12:58:52.713Z,5.17
2022-11-30T13:01:39.127Z,5.18
2022-11-30T13:04:19.281Z,5.18
2022-11-30T13:06:52.581Z,5.16
2022-11-30T13:09:29.337Z,5.16
2022-11-30T13:12:00.839Z,5.15
2022-11-30T13:14:31.562Z,5.14
2022-11-30T13:17:04.033Z,5.13
2022-11-30T13:19:48.789Z,5.15
2022-11-30T13:22:24.857Z,5.13
2022-11-30T13:25:01.677Z,5.12
2022-11-30T13:27:36.370Z,5.11
2022-11-30T13:30:20.583Z,5.11
2022-11-30T13:32:58.246Z,5.10
2022-11-30T13:35:53.437Z,5.09
2022-11-30T13:38:38.676Z,5.10
2022-11-30T13:41:09.415Z,5.10
2022-11-30T13:43:44.951Z,5.10
2022-11-30T13:46:16.756Z,5.10
2022-11-30T13:48:46.037Z,5.11
2022-11-30T13:51:35.909Z,5.11
2022-11-30T13:54:40.335Z,5.11
2022-11-30T13:57:59.384Z,5.10
2022-11-30T14:01:02.151Z,5.10
2022-11-30T14:03:31.735Z,5.10
2022-11-30T14:06:00.808Z,5.10
2022-11-30T14:08:36.380Z,5.10
2022-11-30T14:11:42.930Z,5.10
2022-11-30T14:14:45.672Z,5.11
2022-11-30T14:17:27.478Z,5.08
2022-11-30T14:20:00.723Z,5.07
2022-11-30T14:22:30.774Z,5.06
2022-11-30T14:25:02.497Z,5.06
2022-11-30T14:27:31.565Z,5.07
2022-11-30T14:30:04.317Z,5.06
2022-11-30T14:32:38.942Z,5.07
2022-11-30T14:35:12.701Z,5.05
2022-11-30T14:37:47.056Z,5.04
2022-11-30T14:40:19.896Z,5.02
2022-11-30T14:42:50.979Z,5.03
2022-11-30T14:45:21.655Z,5.04
2022-11-30T14:47:54.001Z,5.03
2022-11-30T14:50:25.049Z,5.01
2022-11-30T14:53:04.060Z,5.02
2022-11-30T14:55:40.688Z,5.01
2022-11-30T14:58:21.625Z,4.99
2022-11-30T15:00:51.109Z,4.98
2022-11-30T15:03:25.627Z,4.96
2022-11-30T15:05:57.162Z,4.93
2022-11-30T15:08:36.688Z,4.91
2022-11-30T15:11:10.515Z,4.91
2022-11-30T15:13:40.500Z,4.91
2022-11-30T15:16:16.873Z,4.89
2022-11-30T15:18:45.283Z,4.87
2022-11-30T15:21:18.439Z,4.86
2022-11-30T15:23:51.155Z,4.86
2022-11-30T15:26:25.645Z,4.86
2022-11-30T15:28:59.263Z,4.85
2022-11-30T15:31:33.833Z,4.85
2022-11-30T15:34:02.696Z,4.85
2022-11-30T15:36:36.530Z,4.84
2022-11-30T15:39:08.073Z,4.85
2022-11-30T15:41:37.997Z,4.85
2022-11-30T15:44:06.644Z,4.84
2022-11-30T15:46:42.743Z,4.83
2022-11-30T15:49:18.801Z,4.84
2022-11-30T15:51:54.510Z,4.82
2022-11-30T15:54:44.120Z,4.82
2022-11-30T15:57:14.281Z,4.80
2022-11-30T15:59:42.849Z,4.79
2022-11-30T16:02:29.491Z,4.77
2022-11-30T16:05:24.447Z,4.76
2022-11-30T16:07:55.682Z,4.74
2022-11-30T16:10:26.904Z,4.73
2022-11-30T16:12:57.310Z,4.72
2022-11-30T16:15:27.635Z,4.69
2022-11-30T16:17:59.675Z,4.66
2022-11-30T16:20:28.249Z,4.66
2022-11-30T16:23:01.107Z,4.66
2022-11-30T16:25:32.475Z,4.67
2022-11-30T16:28:02.852Z,4.67
2022-11-30T16:30:32.190Z,4.68
2022-11-30T16:33:00.549Z,4.69
2022-11-30T16:35:36.661Z,4.69
2022-11-30T16:38:05.044Z,4.65
2022-11-30T16:40:38.491Z,4.65
2022-11-30T16:43:11.443Z,4.63
2022-11-30T16:45:41.179Z,4.62
2022-11-30T16:48:09.553Z,4.63
2022-11-30T16:50:38.171Z,4.62
2022-11-30T16:53:11.325Z,4.63
2022-11-30T16:55:40.181Z,4.63
2022-11-30T16:58:09.892Z,4.63
2022-11-30T17:00:39.988Z,4.64
2022-11-30T17:03:16.359Z,4.63
2022-11-30T17:05:44.688Z,4.64
2022-11-30T17:08:13.020Z,4.63
2022-11-30T17:10:42.293Z,4.62
2022-11-30T17:13:14.684Z,4.60
2022-11-30T17:15:43.031Z,4.62
2022-11-30T17:18:11.677Z,4.61
2022-11-30T17:20:40.316Z,4.60
2022-11-30T17:23:09.069Z,4.58
2022-11-30T17:25:37.428Z,4.59
2022-11-30T17:28:06.091Z,4.59
2022-11-30T17:30:35.877Z,4.55
2022-11-30T17:33:04.339Z,4.52
2022-11-30T17:35:32.697Z,4.49
2022-11-30T17:38:01.179Z,4.49
2022-11-30T17:40:29.496Z,4.45
2022-11-30T17:42:57.944Z,4.42
2022-11-30T17:45:26.261Z,4.40
2022-11-30T17:47:55.964Z,4.39
2022-11-30T17:50:24.977Z,4.39
2022-11-30T17:52:53.540Z,4.40
2022-11-30T17:55:21.831Z,4.40
2022-11-30T17:57:50.232Z,4.40
2022-11-30T18:00:20.124Z,4.41
2022-11-30T18:02:51.138Z,4.41
2022-11-30T18:05:21.867Z,4.41
2022-11-30T18:07:50.991Z,4.40
2022-11-30T18:10:19.549Z,4.39
2022-11-30T18:12:47.892Z,4.40
2022-11-30T18:15:16.295Z,4.39
2022-11-30T18:17:44.637Z,4.38
2022-11-30T18:20:13.864Z,4.38
2022-11-30T18:22:43.756Z,4.37
2022-11-30T18:25:15.523Z,4.38
2022-11-30T18:27:44.477Z,4.39
2022-11-30T18:30:13.639Z,4.40
2022-11-30T18:32:42.008Z,4.40
2022-11-30T18:35:11.028Z,4.41
2022-11-30T18:37:39.447Z,4.41
2022-11-30T18:40:10.885Z,4.40
2022-11-30T18:42:39.264Z,4.39
2022-11-30T18:45:08.611Z,4.38
2022-11-30T18:47:37.067Z,4.37
2022-11-30T18:50:06.379Z,4.40
2022-11-30T18:52:37.892Z,4.40
2022-11-30T18:55:06.844Z,4.39
2022-11-30T18:57:36.875Z,4.41
2022-11-30T19:00:06.455Z,4.41
2022-11-30T19:02:36.012Z,4.42
2022-11-30T19:05:08.977Z,4.44
2022-11-30T19:07:41.567Z,4.45
2022-11-30T19:10:10.700Z,4.43
2022-11-30T19:12:40.848Z,4.44
2022-11-30T19:15:09.786Z,4.43
2022-11-30T19:17:38.073Z,4.45
2022-11-30T19:20:07.851Z,4.46
2022-11-30T19:22:36.182Z,4.44
2022-11-30T19:25:04.883Z,4.45
2022-11-30T19:27:36.823Z,4.47
2022-11-30T19:30:09.012Z,4.48
2022-11-30T19:32:37.388Z,4.48
2022-11-30T19:35:06.570Z,4.46
2022-11-30T19:37:35.051Z,4.45
2022-11-30T19:40:03.507Z,4.44
2022-11-30T19:42:32.080Z,4.43
2022-11-30T19:45:00.487Z,4.42
2022-11-30T19:47:30.189Z,4.42
2022-11-30T19:49:58.738Z,4.41
2022-11-30T19:52:27.079Z,4.41
2022-11-30T19:54:55.608Z,4.41
2022-11-30T19:57:24.148Z,4.41
2022-11-30T19:59:52.541Z,4.39
2022-11-30T20:02:20.979Z,4.36
2022-11-30T20:04:50.962Z,4.37
2022-11-30T20:07:19.448Z,4.36
2022-11-30T20:09:47.898Z,4.34
2022-11-30T20:12:16.224Z,4.36
2022-11-30T20:14:44.682Z,4.36
2022-11-30T20:17:13.109Z,4.33
2022-11-30T20:19:41.452Z,4.32
2022-11-30T20:22:11.548Z,4.31
2022-11-30T20:24:40.095Z,4.28
2022-11-30T20:27:08.515Z,4.29
2022-11-30T20:29:37.396Z,4.30
2022-11-30T20:32:07.315Z,4.28
2022-11-30T20:34:40.989Z,4.29
2022-11-30T20:37:13.513Z,4.28
2022-11-30T20:39:45.974Z,4.27
2022-11-30T20:42:14.802Z,4.25
2022-11-30T20:44:43.136Z,4.24
2022-11-30T20:47:12.097Z,4.23
2022-11-30T20:49:40.455Z,4.22
2022-11-30T20:52:08.817Z,4.21
2022-11-30T20:54:38.472Z,4.19
2022-11-30T20:57:06.826Z,4.17
2022-11-30T20:59:35.181Z,4.16
2022-11-30T21:02:04.495Z,4.16
2022-11-30T21:04:32.942Z,4.18
2022-11-30T21:07:01.262Z,4.19
2022-11-30T21:09:29.615Z,4.17
2022-11-30T21:11:59.389Z,4.17
2022-11-30T21:14:27.922Z,4.16
2022-11-30T21:16:56.412Z,4.17
2022-11-30T21:19:24.903Z,4.12
2022-11-30T21:21:55.237Z,4.11
2022-11-30T21:24:23.587Z,4.09
2022-11-30T21:26:51.948Z,4.10
2022-11-30T21:29:21.656Z,4.11
2022-11-30T21:31:50.087Z,4.14
2022-11-30T21:34:18.467Z,4.16
2022-11-30T21:36:46.908Z,4.17
2022-11-30T21:39:16.252Z,4.17
2022-11-30T21:41:44.784Z,4.13
2022-11-30T21:44:16.047Z,4.06
2022-11-30T21:46:47.468Z,4.05
2022-11-30T21:49:16.809Z,4.02
2022-11-30T21:51:45.210Z,4.02
2022-11-30T21:54:14.549Z,4.04
2022-11-30T21:56:44.766Z,4.04
2022-11-30T21:59:15.428Z,4.06
2022-11-30T22:01:46.281Z,4.09
2022-11-30T22:04:15.711Z,4.11
2022-11-30T22:06:44.859Z,4.12
2022-11-30T22:09:15.945Z,4.12
2022-11-30T22:11:46.043Z,4.11
2022-11-30T22:14:16.989Z,4.12
2022-11-30T22:16:47.243Z,4.13
2022-11-30T22:19:16.573Z,4.12
2022-11-30T22:21:49.947Z,4.14
2022-11-30T22:24:19.031Z,4.13
2022-11-30T22:26:49.057Z,4.10
2022-11-30T22:29:19.974Z,4.06
2022-11-30T22:31:52.139Z,4.07
2022-11-30T22:34:20.876Z,4.06
2022-11-30T22:36:49.666Z,4.08
2022-11-30T22:39:19.826Z,4.10
2022-11-30T22:41:55.188Z,4.11
2022-11-30T22:44:25.645Z,4.11
2022-11-30T22:46:55.529Z,4.11
2022-11-30T22:49:24.367Z,4.12
2022-11-30T22:51:52.739Z,4.11
2022-11-30T22:54:21.050Z,4.11
2022-11-30T22:56:49.356Z,4.10
2022-11-30T22:59:17.781Z,4.09
2022-11-30T23:01:47.713Z,4.09
2022-11-30T23:04:19.047Z,4.07
2022-11-30T23:06:48.750Z,4.06
2022-11-30T23:09:19.290Z,4.07
2022-11-30T23:11:47.944Z,4.08
2022-11-30T23:14:16.590Z,4.07
2022-11-30T23:16:45.794Z,4.05
2022-11-30T23:19:14.398Z,4.04
2022-11-30T23:21:45.881Z,4.02
2022-11-30T23:24:16.805Z,4.02
2022-11-30T23:26:45.519Z,3.99
2022-11-30T23:29:15.738Z,4.00
2022-11-30T23:31:45.653Z,3.99
2022-11-30T23:34:16.053Z,4.00
2022-11-30T23:36:46.847Z,4.03
2022-11-30T23:39:17.305Z,4.01
2022-11-30T23:41:45.894Z,4.02
2022-11-30T23:44:14.862Z,4.01
2022-11-30T23:46:43.395Z,3.99
2022-11-30T23:49:14.037Z,3.95
2022-11-30T23:51:42.488Z,3.92
2022-11-30T23:54:12.114Z,3.91
2022-11-30T23:56:40.474Z,3.93
2022-11-30T23:59:08.868Z,3.91
